sensor_id;sensor_type;location;lat;lon;timestamp;temperature;humidity
7174;DHT22;3628;48.654;8.932;2023-04-15T00:00:07;3.20;99.90
7174;DHT22;3628;48.654;8.932;2023-04-15T00:02:32;3.10;99.90
7174;DHT22;3628;48.654;8.932;2023-04-15T00:04:58;3.10;99.90
7174;DHT22;3628;48.654;8.932;2023-04-15T00:07:23;3.10;99.90
7174;DHT22;3628;48.654;8.932;2023-04-15T00:09:49;3.00;99.90
7174;DHT22;3628;48.654;8.932;2023-04-15T00:12:14;3.00;99.90
7174;DHT22;3628;48.654;8.932;2023-04-15T00:14:40;2.90;99.90
7174;DHT22;3628;48.654;8.932;2023-04-15T00:17:06;2.90;99.90
7174;DHT22;3628;48.654;8.932;2023-04-15T00:19:31;2.90;99.90
7174;DHT22;3628;48.654;8.932;2023-04-15T00:21:57;2.80;99.90
7174;DHT22;3628;48.654;8.932;2023-04-15T00:24:23;2.80;99.90
7174;DHT22;3628;48.654;8.932;2023-04-15T00:26:48;2.70;99.90
7174;DHT22;3628;48.654;8.932;2023-04-15T00:29:14;2.70;99.90
7174;DHT22;3628;48.654;8.932;2023-04-15T00:31:40;2.60;99.90
7174;DHT22;3628;48.654;8.932;2023-04-15T00:34:06;2.60;99.90
7174;DHT22;3628;48.654;8.932;2023-04-15T00:36:32;2.60;99.90
7174;DHT22;3628;48.654;8.932;2023-04-15T00:38:58;2.60;99.90
7174;DHT22;3628;48.654;8.932;2023-04-15T00:41:24;2.50;99.90
7174;DHT22;3628;48.654;8.932;2023-04-15T00:43:49;2.50;99.90
7174;DHT22;3628;48.654;8.932;2023-04-15T00:46:16;2.50;99.90
7174;DHT22;3628;48.654;8.932;2023-04-15T00:48:43;2.50;99.90
7174;DHT22;3628;48.654;8.932;2023-04-15T00:51:09;2.50;99.90
7174;DHT22;3628;48.654;8.932;2023-04-15T00:53:35;2.50;99.90
7174;DHT22;3628;48.654;8.932;2023-04-15T00:56:01;2.50;99.90
7174;DHT22;3628;48.654;8.932;2023-04-15T00:58:26;2.50;99.90
7174;DHT22;3628;48.654;8.932;2023-04-15T01:00:54;2.50;99.90
7174;DHT22;3628;48.654;8.932;2023-04-15T01:03:20;2.50;99.90
7174;DHT22;3628;48.654;8.932;2023-04-15T01:05:46;2.50;99.90
7174;DHT22;3628;48.654;8.932;2023-04-15T01:08:11;2.50;99.90
7174;DHT22;3628;48.654;8.932;2023-04-15T01:10:37;2.50;99.90
7174;DHT22;3628;48.654;8.932;2023-04-15T01:13:03;2.50;99.90
7174;DHT22;3628;48.654;8.932;2023-04-15T01:15:29;2.40;99.90
7174;DHT22;3628;48.654;8.932;2023-04-15T01:17:57;2.40;99.90
7174;DHT22;3628;48.654;8.932;2023-04-15T01:20:23;2.40;99.90
7174;DHT22;3628;48.654;8.932;2023-04-15T01:22:49;2.40;99.90
7174;DHT22;3628;48.654;8.932;2023-04-15T01:25:18;2.40;99.90
7174;DHT22;3628;48.654;8.932;2023-04-15T01:27:44;2.40;99.90
7174;DHT22;3628;48.654;8.932;2023-04-15T01:30:10;2.40;99.90
7174;DHT22;3628;48.654;8.932;2023-04-15T01:32:37;2.30;99.90
7174;DHT22;3628;48.654;8.932;2023-04-15T01:35:02;2.30;99.90
7174;DHT22;3628;48.654;8.932;2023-04-15T01:37:28;2.20;99.90
7174;DHT22;3628;48.654;8.932;2023-04-15T01:39:54;2.20;99.90
7174;DHT22;3628;48.654;8.932;2023-04-15T01:42:21;2.20;99.90
7174;DHT22;3628;48.654;8.932;2023-04-15T01:44:47;2.10;99.90
7174;DHT22;3628;48.654;8.932;2023-04-15T01:47:12;2.10;99.90
7174;DHT22;3628;48.654;8.932;2023-04-15T01:49:38;2.10;99.90
7174;DHT22;3628;48.654;8.932;2023-04-15T01:52:04;2.10;99.90
7174;DHT22;3628;48.654;8.932;2023-04-15T01:54:29;2.10;99.90
7174;DHT22;3628;48.654;8.932;2023-04-15T01:56:55;2.00;99.90
7174;DHT22;3628;48.654;8.932;2023-04-15T01:59:21;2.00;99.90
7174;DHT22;3628;48.654;8.932;2023-04-15T02:01:47;2.00;99.90
7174;DHT22;3628;48.654;8.932;2023-04-15T02:04:12;2.00;99.90
7174;DHT22;3628;48.654;8.932;2023-04-15T02:06:42;2.00;99.90
7174;DHT22;3628;48.654;8.932;2023-04-15T02:09:08;1.90;99.90
7174;DHT22;3628;48.654;8.932;2023-04-15T02:11:34;1.90;99.90
7174;DHT22;3628;48.654;8.932;2023-04-15T02:14:01;1.90;99.90
7174;DHT22;3628;48.654;8.932;2023-04-15T02:16:27;1.90;99.90
7174;DHT22;3628;48.654;8.932;2023-04-15T02:18:52;1.90;99.90
7174;DHT22;3628;48.654;8.932;2023-04-15T02:21:18;2.00;99.90
7174;DHT22;3628;48.654;8.932;2023-04-15T02:23:43;2.00;99.90
7174;DHT22;3628;48.654;8.932;2023-04-15T02:26:11;1.90;99.90
7174;DHT22;3628;48.654;8.932;2023-04-15T02:28:37;1.90;99.90
7174;DHT22;3628;48.654;8.932;2023-04-15T02:31:06;1.90;99.90
7174;DHT22;3628;48.654;8.932;2023-04-15T02:33:32;1.90;99.90
7174;DHT22;3628;48.654;8.932;2023-04-15T02:35:58;1.80;99.90
7174;DHT22;3628;48.654;8.932;2023-04-15T02:38:24;1.90;99.90
7174;DHT22;3628;48.654;8.932;2023-04-15T02:40:49;1.80;99.90
7174;DHT22;3628;48.654;8.932;2023-04-15T02:43:15;1.80;99.90
7174;DHT22;3628;48.654;8.932;2023-04-15T02:45:45;1.70;99.90
7174;DHT22;3628;48.654;8.932;2023-04-15T02:48:11;1.80;99.90
7174;DHT22;3628;48.654;8.932;2023-04-15T02:50:37;1.70;99.90
7174;DHT22;3628;48.654;8.932;2023-04-15T02:53:06;1.70;99.90
7174;DHT22;3628;48.654;8.932;2023-04-15T02:55:37;1.60;99.90
7174;DHT22;3628;48.654;8.932;2023-04-15T02:58:03;1.60;99.90
7174;DHT22;3628;48.654;8.932;2023-04-15T03:00:28;1.60;99.90
7174;DHT22;3628;48.654;8.932;2023-04-15T03:03:04;1.50;99.90
7174;DHT22;3628;48.654;8.932;2023-04-15T03:05:30;1.40;99.90
7174;DHT22;3628;48.654;8.932;2023-04-15T03:07:56;1.40;99.90
7174;DHT22;3628;48.654;8.932;2023-04-15T03:10:21;1.40;99.90
7174;DHT22;3628;48.654;8.932;2023-04-15T03:12:47;1.40;99.90
7174;DHT22;3628;48.654;8.932;2023-04-15T03:15:13;1.40;99.90
7174;DHT22;3628;48.654;8.932;2023-04-15T03:17:39;1.40;99.90
7174;DHT22;3628;48.654;8.932;2023-04-15T03:20:05;1.40;99.90
7174;DHT22;3628;48.654;8.932;2023-04-15T03:22:31;1.40;99.90
7174;DHT22;3628;48.654;8.932;2023-04-15T03:24:57;1.40;99.90
7174;DHT22;3628;48.654;8.932;2023-04-15T03:27:23;1.40;99.90
7174;DHT22;3628;48.654;8.932;2023-04-15T03:29:49;1.40;99.90
7174;DHT22;3628;48.654;8.932;2023-04-15T03:32:15;1.40;99.90
7174;DHT22;3628;48.654;8.932;2023-04-15T03:34:41;1.40;99.90
7174;DHT22;3628;48.654;8.932;2023-04-15T03:37:07;1.40;99.90
7174;DHT22;3628;48.654;8.932;2023-04-15T03:39:33;1.40;99.90
7174;DHT22;3628;48.654;8.932;2023-04-15T03:41:58;1.40;99.90
7174;DHT22;3628;48.654;8.932;2023-04-15T03:44:25;1.30;99.90
7174;DHT22;3628;48.654;8.932;2023-04-15T03:46:51;1.30;99.90
7174;DHT22;3628;48.654;8.932;2023-04-15T03:49:17;1.30;99.90
7174;DHT22;3628;48.654;8.932;2023-04-15T03:51:43;1.30;99.90
7174;DHT22;3628;48.654;8.932;2023-04-15T03:54:09;1.30;99.90
7174;DHT22;3628;48.654;8.932;2023-04-15T03:56:36;1.30;99.90
7174;DHT22;3628;48.654;8.932;2023-04-15T03:59:01;1.20;99.90
7174;DHT22;3628;48.654;8.932;2023-04-15T04:01:27;1.20;99.90
7174;DHT22;3628;48.654;8.932;2023-04-15T04:03:52;1.20;99.90
7174;DHT22;3628;48.654;8.932;2023-04-15T04:06:18;1.20;99.90
7174;DHT22;3628;48.654;8.932;2023-04-15T04:08:44;1.20;99.90
7174;DHT22;3628;48.654;8.932;2023-04-15T04:11:10;1.20;99.90
7174;DHT22;3628;48.654;8.932;2023-04-15T04:13:35;1.10;99.90
7174;DHT22;3628;48.654;8.932;2023-04-15T04:16:01;1.10;99.90
7174;DHT22;3628;48.654;8.932;2023-04-15T04:18:28;1.10;99.90
7174;DHT22;3628;48.654;8.932;2023-04-15T04:20:54;1.10;99.90
7174;DHT22;3628;48.654;8.932;2023-04-15T04:23:19;1.10;99.90
7174;DHT22;3628;48.654;8.932;2023-04-15T04:25:45;1.10;99.90
7174;DHT22;3628;48.654;8.932;2023-04-15T04:28:11;1.10;99.90
7174;DHT22;3628;48.654;8.932;2023-04-15T04:30:36;1.10;99.90
7174;DHT22;3628;48.654;8.932;2023-04-15T04:33:02;1.20;99.90
7174;DHT22;3628;48.654;8.932;2023-04-15T04:35:28;1.20;99.90
7174;DHT22;3628;48.654;8.932;2023-04-15T04:37:53;1.20;99.90
7174;DHT22;3628;48.654;8.932;2023-04-15T04:40:19;1.20;99.90
7174;DHT22;3628;48.654;8.932;2023-04-15T04:42:44;1.20;99.90
7174;DHT22;3628;48.654;8.932;2023-04-15T04:45:10;1.20;99.90
7174;DHT22;3628;48.654;8.932;2023-04-15T04:47:36;1.20;99.90
7174;DHT22;3628;48.654;8.932;2023-04-15T04:50:02;1.20;99.90
7174;DHT22;3628;48.654;8.932;2023-04-15T04:52:27;1.20;99.90
7174;DHT22;3628;48.654;8.932;2023-04-15T04:54:53;1.20;99.90
7174;DHT22;3628;48.654;8.932;2023-04-15T04:57:18;1.30;99.90
7174;DHT22;3628;48.654;8.932;2023-04-15T04:59:44;1.30;99.90
7174;DHT22;3628;48.654;8.932;2023-04-15T05:02:10;1.30;99.90
7174;DHT22;3628;48.654;8.932;2023-04-15T05:04:35;1.30;99.90
7174;DHT22;3628;48.654;8.932;2023-04-15T05:07:01;1.40;99.90
7174;DHT22;3628;48.654;8.932;2023-04-15T05:09:26;1.40;99.90
7174;DHT22;3628;48.654;8.932;2023-04-15T05:11:52;1.50;99.90
7174;DHT22;3628;48.654;8.932;2023-04-15T05:14:18;1.50;99.90
7174;DHT22;3628;48.654;8.932;2023-04-15T05:16:43;1.60;99.90
7174;DHT22;3628;48.654;8.932;2023-04-15T05:19:09;1.60;99.90
7174;DHT22;3628;48.654;8.932;2023-04-15T05:21:34;1.70;99.90
7174;DHT22;3628;48.654;8.932;2023-04-15T05:24:00;1.70;99.90
7174;DHT22;3628;48.654;8.932;2023-04-15T05:26:25;1.80;99.90
7174;DHT22;3628;48.654;8.932;2023-04-15T05:28:51;1.90;99.90
7174;DHT22;3628;48.654;8.932;2023-04-15T05:31:17;1.90;99.90
7174;DHT22;3628;48.654;8.932;2023-04-15T05:33:42;1.90;99.90
7174;DHT22;3628;48.654;8.932;2023-04-15T05:36:08;2.00;99.90
7174;DHT22;3628;48.654;8.932;2023-04-15T05:38:34;2.10;99.90
7174;DHT22;3628;48.654;8.932;2023-04-15T05:41:00;2.20;99.90
7174;DHT22;3628;48.654;8.932;2023-04-15T05:43:26;2.30;99.90
7174;DHT22;3628;48.654;8.932;2023-04-15T05:45:51;2.40;99.90
7174;DHT22;3628;48.654;8.932;2023-04-15T05:48:17;2.50;99.90
7174;DHT22;3628;48.654;8.932;2023-04-15T05:50:43;2.70;99.90
7174;DHT22;3628;48.654;8.932;2023-04-15T05:53:08;2.80;99.90
7174;DHT22;3628;48.654;8.932;2023-04-15T05:55:34;2.90;99.90
7174;DHT22;3628;48.654;8.932;2023-04-15T05:57:59;3.00;99.90
7174;DHT22;3628;48.654;8.932;2023-04-15T06:00:25;3.10;99.90
7174;DHT22;3628;48.654;8.932;2023-04-15T06:02:51;3.20;99.90
7174;DHT22;3628;48.654;8.932;2023-04-15T06:05:17;3.30;99.90
7174;DHT22;3628;48.654;8.932;2023-04-15T06:07:43;3.40;99.90
7174;DHT22;3628;48.654;8.932;2023-04-15T06:10:09;3.50;99.90
7174;DHT22;3628;48.654;8.932;2023-04-15T06:12:35;3.60;99.90
7174;DHT22;3628;48.654;8.932;2023-04-15T06:15:00;3.70;99.90
7174;DHT22;3628;48.654;8.932;2023-04-15T06:17:26;3.80;99.90
7174;DHT22;3628;48.654;8.932;2023-04-15T06:19:52;3.90;99.90
7174;DHT22;3628;48.654;8.932;2023-04-15T06:22:23;4.00;99.90
7174;DHT22;3628;48.654;8.932;2023-04-15T06:24:49;4.20;99.90
7174;DHT22;3628;48.654;8.932;2023-04-15T06:27:16;4.30;99.90
7174;DHT22;3628;48.654;8.932;2023-04-15T06:29:41;4.40;99.90
7174;DHT22;3628;48.654;8.932;2023-04-15T06:32:07;4.50;99.90
7174;DHT22;3628;48.654;8.932;2023-04-15T06:34:33;4.50;99.90
7174;DHT22;3628;48.654;8.932;2023-04-15T06:36:58;4.50;99.90
7174;DHT22;3628;48.654;8.932;2023-04-15T06:39:25;4.50;99.90
7174;DHT22;3628;48.654;8.932;2023-04-15T06:41:51;4.50;99.90
7174;DHT22;3628;48.654;8.932;2023-04-15T06:44:17;4.50;99.90
7174;DHT22;3628;48.654;8.932;2023-04-15T06:46:43;4.60;99.90
7174;DHT22;3628;48.654;8.932;2023-04-15T06:49:09;4.70;99.90
7174;DHT22;3628;48.654;8.932;2023-04-15T06:51:36;4.90;99.90
7174;DHT22;3628;48.654;8.932;2023-04-15T06:54:02;5.00;99.90
7174;DHT22;3628;48.654;8.932;2023-04-15T06:56:33;5.20;99.90
7174;DHT22;3628;48.654;8.932;2023-04-15T06:58:58;5.40;99.90
7174;DHT22;3628;48.654;8.932;2023-04-15T07:01:24;5.60;99.90
7174;DHT22;3628;48.654;8.932;2023-04-15T07:03:50;5.80;99.90
7174;DHT22;3628;48.654;8.932;2023-04-15T07:06:15;5.90;99.90
7174;DHT22;3628;48.654;8.932;2023-04-15T07:08:41;6.20;99.90
7174;DHT22;3628;48.654;8.932;2023-04-15T07:11:07;6.40;99.90
7174;DHT22;3628;48.654;8.932;2023-04-15T07:13:33;6.70;99.90
7174;DHT22;3628;48.654;8.932;2023-04-15T07:15:58;6.90;99.90
7174;DHT22;3628;48.654;8.932;2023-04-15T07:18:24;7.10;99.90
7174;DHT22;3628;48.654;8.932;2023-04-15T07:20:50;7.40;99.90
7174;DHT22;3628;48.654;8.932;2023-04-15T07:23:16;7.70;99.90
7174;DHT22;3628;48.654;8.932;2023-04-15T07:25:41;8.00;99.90
7174;DHT22;3628;48.654;8.932;2023-04-15T07:28:07;8.40;99.90
7174;DHT22;3628;48.654;8.932;2023-04-15T07:30:32;8.70;99.90
7174;DHT22;3628;48.654;8.932;2023-04-15T07:32:59;9.10;99.90
7174;DHT22;3628;48.654;8.932;2023-04-15T07:35:24;9.50;99.90
7174;DHT22;3628;48.654;8.932;2023-04-15T07:37:50;9.80;99.90
7174;DHT22;3628;48.654;8.932;2023-04-15T07:40:16;10.20;99.90
7174;DHT22;3628;48.654;8.932;2023-04-15T07:42:42;10.60;99.90
7174;DHT22;3628;48.654;8.932;2023-04-15T07:45:08;10.80;99.90
7174;DHT22;3628;48.654;8.932;2023-04-15T07:47:34;11.30;99.90
7174;DHT22;3628;48.654;8.932;2023-04-15T07:50:00;11.70;99.90
7174;DHT22;3628;48.654;8.932;2023-04-15T07:52:26;12.00;99.90
7174;DHT22;3628;48.654;8.932;2023-04-15T07:54:52;12.40;99.90
7174;DHT22;3628;48.654;8.932;2023-04-15T07:57:18;12.80;99.90
7174;DHT22;3628;48.654;8.932;2023-04-15T07:59:44;13.10;99.90
7174;DHT22;3628;48.654;8.932;2023-04-15T08:02:10;13.50;99.90
7174;DHT22;3628;48.654;8.932;2023-04-15T08:04:35;13.80;99.90
7174;DHT22;3628;48.654;8.932;2023-04-15T08:07:02;14.00;99.90
7174;DHT22;3628;48.654;8.932;2023-04-15T08:09:28;14.20;99.90
7174;DHT22;3628;48.654;8.932;2023-04-15T08:11:53;14.20;99.90
7174;DHT22;3628;48.654;8.932;2023-04-15T08:14:19;14.40;99.90
7174;DHT22;3628;48.654;8.932;2023-04-15T08:16:45;14.40;99.90
7174;DHT22;3628;48.654;8.932;2023-04-15T08:19:10;14.30;99.90
7174;DHT22;3628;48.654;8.932;2023-04-15T08:21:36;14.10;99.90
7174;DHT22;3628;48.654;8.932;2023-04-15T08:24:01;13.90;99.90
7174;DHT22;3628;48.654;8.932;2023-04-15T08:26:27;13.80;99.90
7174;DHT22;3628;48.654;8.932;2023-04-15T08:28:53;13.80;99.90
7174;DHT22;3628;48.654;8.932;2023-04-15T08:31:18;13.80;99.90
7174;DHT22;3628;48.654;8.932;2023-04-15T08:33:45;13.80;99.90
7174;DHT22;3628;48.654;8.932;2023-04-15T08:36:11;13.90;99.90
7174;DHT22;3628;48.654;8.932;2023-04-15T08:38:36;13.90;99.90
7174;DHT22;3628;48.654;8.932;2023-04-15T08:41:20;14.10;99.90
7174;DHT22;3628;48.654;8.932;2023-04-15T08:44:00;14.40;99.90
7174;DHT22;3628;48.654;8.932;2023-04-15T08:46:26;14.60;99.90
7174;DHT22;3628;48.654;8.932;2023-04-15T08:48:58;14.80;98.60
7174;DHT22;3628;48.654;8.932;2023-04-15T08:51:24;15.00;97.20
7174;DHT22;3628;48.654;8.932;2023-04-15T08:53:50;15.10;97.60
7174;DHT22;3628;48.654;8.932;2023-04-15T08:56:17;15.30;97.40
7174;DHT22;3628;48.654;8.932;2023-04-15T08:58:44;15.40;91.50
7174;DHT22;3628;48.654;8.932;2023-04-15T09:01:13;15.30;83.10
7174;DHT22;3628;48.654;8.932;2023-04-15T09:03:39;15.00;80.00
7174;DHT22;3628;48.654;8.932;2023-04-15T09:06:05;14.90;84.00
7174;DHT22;3628;48.654;8.932;2023-04-15T09:08:31;14.70;83.80
7174;DHT22;3628;48.654;8.932;2023-04-15T09:10:58;14.50;83.50
7174;DHT22;3628;48.654;8.932;2023-04-15T09:13:24;14.40;84.20
7174;DHT22;3628;48.654;8.932;2023-04-15T09:15:50;14.20;81.30
7174;DHT22;3628;48.654;8.932;2023-04-15T09:18:33;14.00;80.60
7174;DHT22;3628;48.654;8.932;2023-04-15T09:21:06;14.00;76.90
7174;DHT22;3628;48.654;8.932;2023-04-15T09:23:33;13.80;77.10
7174;DHT22;3628;48.654;8.932;2023-04-15T09:26:00;13.80;79.50
7174;DHT22;3628;48.654;8.932;2023-04-15T09:28:27;13.80;76.80
7174;DHT22;3628;48.654;8.932;2023-04-15T09:30:59;13.80;74.90
7174;DHT22;3628;48.654;8.932;2023-04-15T09:33:27;13.60;76.80
7174;DHT22;3628;48.654;8.932;2023-04-15T09:36:01;13.70;79.90
7174;DHT22;3628;48.654;8.932;2023-04-15T09:38:28;13.70;79.50
7174;DHT22;3628;48.654;8.932;2023-04-15T09:40:54;13.80;81.10
7174;DHT22;3628;48.654;8.932;2023-04-15T09:43:20;14.10;80.40
7174;DHT22;3628;48.654;8.932;2023-04-15T09:45:53;14.20;80.30
7174;DHT22;3628;48.654;8.932;2023-04-15T09:48:23;14.10;78.40
7174;DHT22;3628;48.654;8.932;2023-04-15T09:50:52;14.00;80.40
7174;DHT22;3628;48.654;8.932;2023-04-15T09:53:20;14.10;82.90
7174;DHT22;3628;48.654;8.932;2023-04-15T09:55:56;14.00;78.00
7174;DHT22;3628;48.654;8.932;2023-04-15T09:58:27;14.00;78.30
7174;DHT22;3628;48.654;8.932;2023-04-15T10:00:55;14.10;81.50
7174;DHT22;3628;48.654;8.932;2023-04-15T10:03:23;14.00;78.70
7174;DHT22;3628;48.654;8.932;2023-04-15T10:05:51;14.00;75.70
7174;DHT22;3628;48.654;8.932;2023-04-15T10:08:22;14.20;76.40
7174;DHT22;3628;48.654;8.932;2023-04-15T10:10:49;14.10;72.80
7174;DHT22;3628;48.654;8.932;2023-04-15T10:13:17;14.00;72.30
7174;DHT22;3628;48.654;8.932;2023-04-15T10:15:44;14.10;74.30
7174;DHT22;3628;48.654;8.932;2023-04-15T10:18:18;14.40;74.80
7174;DHT22;3628;48.654;8.932;2023-04-15T10:20:47;14.30;76.80
7174;DHT22;3628;48.654;8.932;2023-04-15T10:23:12;14.20;75.20
7174;DHT22;3628;48.654;8.932;2023-04-15T10:25:39;14.10;74.90
7174;DHT22;3628;48.654;8.932;2023-04-15T10:28:06;14.00;73.00
7174;DHT22;3628;48.654;8.932;2023-04-15T10:30:33;14.10;76.10
7174;DHT22;3628;48.654;8.932;2023-04-15T10:33:00;14.10;74.50
7174;DHT22;3628;48.654;8.932;2023-04-15T10:35:28;14.00;73.00
7174;DHT22;3628;48.654;8.932;2023-04-15T10:37:55;14.20;72.80
7174;DHT22;3628;48.654;8.932;2023-04-15T10:43:01;14.30;72.50
7174;DHT22;3628;48.654;8.932;2023-04-15T10:45:30;14.20;69.50
7174;DHT22;3628;48.654;8.932;2023-04-15T10:47:57;14.10;67.20
7174;DHT22;3628;48.654;8.932;2023-04-15T10:50:26;14.10;67.60
7174;DHT22;3628;48.654;8.932;2023-04-15T10:52:55;14.10;66.90
7174;DHT22;3628;48.654;8.932;2023-04-15T10:55:25;14.10;64.00
7174;DHT22;3628;48.654;8.932;2023-04-15T10:57:58;14.10;68.20
7174;DHT22;3628;48.654;8.932;2023-04-15T11:00:25;14.20;69.60
7174;DHT22;3628;48.654;8.932;2023-04-15T11:02:52;14.20;63.80
7174;DHT22;3628;48.654;8.932;2023-04-15T11:05:19;14.30;62.20
7174;DHT22;3628;48.654;8.932;2023-04-15T11:07:46;14.10;62.60
7174;DHT22;3628;48.654;8.932;2023-04-15T11:13:01;14.20;63.80
7174;DHT22;3628;48.654;8.932;2023-04-15T11:15:34;14.40;65.10
7174;DHT22;3628;48.654;8.932;2023-04-15T11:20:40;14.40;69.20
7174;DHT22;3628;48.654;8.932;2023-04-15T11:23:07;14.10;68.50
7174;DHT22;3628;48.654;8.932;2023-04-15T11:25:34;13.70;70.20
7174;DHT22;3628;48.654;8.932;2023-04-15T11:28:00;13.50;71.30
7174;DHT22;3628;48.654;8.932;2023-04-15T11:30:28;13.50;72.70
7174;DHT22;3628;48.654;8.932;2023-04-15T11:32:59;13.50;73.30
7174;DHT22;3628;48.654;8.932;2023-04-15T11:35:25;13.80;73.50
7174;DHT22;3628;48.654;8.932;2023-04-15T11:37:51;13.80;71.80
7174;DHT22;3628;48.654;8.932;2023-04-15T11:40:22;13.90;72.10
7174;DHT22;3628;48.654;8.932;2023-04-15T11:43:03;14.00;70.20
7174;DHT22;3628;48.654;8.932;2023-04-15T11:45:29;14.20;66.30
7174;DHT22;3628;48.654;8.932;2023-04-15T11:48:07;14.30;66.60
7174;DHT22;3628;48.654;8.932;2023-04-15T11:50:34;14.50;72.90
7174;DHT22;3628;48.654;8.932;2023-04-15T11:53:04;14.40;71.70
7174;DHT22;3628;48.654;8.932;2023-04-15T11:55:30;14.40;70.10
7174;DHT22;3628;48.654;8.932;2023-04-15T11:58:14;14.20;68.90
7174;DHT22;3628;48.654;8.932;2023-04-15T12:01:06;14.10;69.80
7174;DHT22;3628;48.654;8.932;2023-04-15T12:03:42;14.20;72.00
7174;DHT22;3628;48.654;8.932;2023-04-15T12:06:23;14.40;69.80
7174;DHT22;3628;48.654;8.932;2023-04-15T12:09:14;14.70;66.60
7174;DHT22;3628;48.654;8.932;2023-04-15T12:11:42;14.80;66.30
7174;DHT22;3628;48.654;8.932;2023-04-15T12:14:27;14.90;65.80
7174;DHT22;3628;48.654;8.932;2023-04-15T12:16:56;15.10;66.50
7174;DHT22;3628;48.654;8.932;2023-04-15T12:19:25;15.40;70.50
7174;DHT22;3628;48.654;8.932;2023-04-15T12:21:53;15.50;68.00
7174;DHT22;3628;48.654;8.932;2023-04-15T12:24:22;15.30;68.00
7174;DHT22;3628;48.654;8.932;2023-04-15T12:26:54;14.80;68.40
7174;DHT22;3628;48.654;8.932;2023-04-15T12:29:26;14.50;71.00
7174;DHT22;3628;48.654;8.932;2023-04-15T12:31:56;14.50;69.80
7174;DHT22;3628;48.654;8.932;2023-04-15T12:34:28;14.40;69.90
7174;DHT22;3628;48.654;8.932;2023-04-15T12:36:54;14.30;70.60
7174;DHT22;3628;48.654;8.932;2023-04-15T12:39:23;14.50;71.60
7174;DHT22;3628;48.654;8.932;2023-04-15T12:41:50;14.50;69.00
7174;DHT22;3628;48.654;8.932;2023-04-15T12:44:15;14.40;70.40
7174;DHT22;3628;48.654;8.932;2023-04-15T12:46:41;14.20;69.60
7174;DHT22;3628;48.654;8.932;2023-04-15T12:49:07;14.00;71.20
7174;DHT22;3628;48.654;8.932;2023-04-15T12:51:33;14.00;71.90
7174;DHT22;3628;48.654;8.932;2023-04-15T12:53:59;14.20;72.70
7174;DHT22;3628;48.654;8.932;2023-04-15T12:56:24;14.40;71.70
7174;DHT22;3628;48.654;8.932;2023-04-15T12:58:50;14.70;72.30
7174;DHT22;3628;48.654;8.932;2023-04-15T13:01:16;14.80;69.70
7174;DHT22;3628;48.654;8.932;2023-04-15T13:03:41;14.50;68.50
7174;DHT22;3628;48.654;8.932;2023-04-15T13:06:07;14.40;66.70
7174;DHT22;3628;48.654;8.932;2023-04-15T13:08:32;14.20;65.40
7174;DHT22;3628;48.654;8.932;2023-04-15T13:10:58;14.00;63.20
7174;DHT22;3628;48.654;8.932;2023-04-15T13:13:24;13.90;61.50
7174;DHT22;3628;48.654;8.932;2023-04-15T13:15:50;14.20;64.00
7174;DHT22;3628;48.654;8.932;2023-04-15T13:18:15;14.10;65.20
7174;DHT22;3628;48.654;8.932;2023-04-15T13:20:41;14.00;66.00
7174;DHT22;3628;48.654;8.932;2023-04-15T13:23:07;14.10;65.20
7174;DHT22;3628;48.654;8.932;2023-04-15T13:25:32;14.20;65.50
7174;DHT22;3628;48.654;8.932;2023-04-15T13:27:58;14.30;65.10
7174;DHT22;3628;48.654;8.932;2023-04-15T13:30:25;14.40;67.50
7174;DHT22;3628;48.654;8.932;2023-04-15T13:32:52;14.10;75.60
7174;DHT22;3628;48.654;8.932;2023-04-15T13:35:18;13.90;77.40
7174;DHT22;3628;48.654;8.932;2023-04-15T13:37:44;13.50;78.70
7174;DHT22;3628;48.654;8.932;2023-04-15T13:40:10;13.40;80.30
7174;DHT22;3628;48.654;8.932;2023-04-15T13:42:36;13.20;78.80
7174;DHT22;3628;48.654;8.932;2023-04-15T13:45:01;12.80;80.20
7174;DHT22;3628;48.654;8.932;2023-04-15T13:47:27;12.40;82.70
7174;DHT22;3628;48.654;8.932;2023-04-15T13:49:53;12.10;85.40
7174;DHT22;3628;48.654;8.932;2023-04-15T13:52:21;11.70;88.40
7174;DHT22;3628;48.654;8.932;2023-04-15T13:54:46;11.40;88.70
7174;DHT22;3628;48.654;8.932;2023-04-15T13:57:12;11.30;87.50
7174;DHT22;3628;48.654;8.932;2023-04-15T13:59:38;11.30;86.30
7174;DHT22;3628;48.654;8.932;2023-04-15T14:02:03;11.30;84.90
7174;DHT22;3628;48.654;8.932;2023-04-15T14:04:30;11.30;84.70
7174;DHT22;3628;48.654;8.932;2023-04-15T14:06:56;11.50;84.70
7174;DHT22;3628;48.654;8.932;2023-04-15T14:09:21;11.60;83.40
7174;DHT22;3628;48.654;8.932;2023-04-15T14:11:51;11.80;83.40
7174;DHT22;3628;48.654;8.932;2023-04-15T14:14:17;12.00;82.50
7174;DHT22;3628;48.654;8.932;2023-04-15T14:16:42;12.30;82.50
7174;DHT22;3628;48.654;8.932;2023-04-15T14:19:08;12.40;78.90
7174;DHT22;3628;48.654;8.932;2023-04-15T14:21:33;12.50;78.40
7174;DHT22;3628;48.654;8.932;2023-04-15T14:23:59;12.60;78.00
7174;DHT22;3628;48.654;8.932;2023-04-15T14:26:25;12.60;77.90
7174;DHT22;3628;48.654;8.932;2023-04-15T14:28:50;12.70;78.60
7174;DHT22;3628;48.654;8.932;2023-04-15T14:31:16;12.70;76.30
7174;DHT22;3628;48.654;8.932;2023-04-15T14:33:41;12.60;76.20
7174;DHT22;3628;48.654;8.932;2023-04-15T14:36:08;12.50;76.50
7174;DHT22;3628;48.654;8.932;2023-04-15T14:38:34;12.50;76.20
7174;DHT22;3628;48.654;8.932;2023-04-15T14:41:03;12.30;71.70
7174;DHT22;3628;48.654;8.932;2023-04-15T14:43:29;12.20;71.10
7174;DHT22;3628;48.654;8.932;2023-04-15T14:45:54;12.20;67.80
7174;DHT22;3628;48.654;8.932;2023-04-15T14:48:20;12.00;69.00
7174;DHT22;3628;48.654;8.932;2023-04-15T14:50:46;12.00;71.80
7174;DHT22;3628;48.654;8.932;2023-04-15T14:53:11;11.90;70.80
7174;DHT22;3628;48.654;8.932;2023-04-15T14:55:37;11.80;71.10
7174;DHT22;3628;48.654;8.932;2023-04-15T14:58:02;11.70;71.80
7174;DHT22;3628;48.654;8.932;2023-04-15T15:00:29;11.70;72.50
7174;DHT22;3628;48.654;8.932;2023-04-15T15:02:54;11.60;73.00
7174;DHT22;3628;48.654;8.932;2023-04-15T15:05:20;11.60;73.50
7174;DHT22;3628;48.654;8.932;2023-04-15T15:07:46;11.60;73.90
7174;DHT22;3628;48.654;8.932;2023-04-15T15:10:11;11.50;74.90
7174;DHT22;3628;48.654;8.932;2023-04-15T15:12:37;11.60;75.60
7174;DHT22;3628;48.654;8.932;2023-04-15T15:15:03;11.50;75.30
7174;DHT22;3628;48.654;8.932;2023-04-15T15:17:29;11.50;75.30
7174;DHT22;3628;48.654;8.932;2023-04-15T15:19:55;11.50;75.30
7174;DHT22;3628;48.654;8.932;2023-04-15T15:22:21;11.50;76.40
7174;DHT22;3628;48.654;8.932;2023-04-15T15:24:46;11.50;77.30
7174;DHT22;3628;48.654;8.932;2023-04-15T15:27:12;11.50;78.00
7174;DHT22;3628;48.654;8.932;2023-04-15T15:29:38;11.40;78.10
7174;DHT22;3628;48.654;8.932;2023-04-15T15:32:03;11.40;78.70
7174;DHT22;3628;48.654;8.932;2023-04-15T15:34:29;11.40;78.40
7174;DHT22;3628;48.654;8.932;2023-04-15T15:36:54;11.40;78.80
7174;DHT22;3628;48.654;8.932;2023-04-15T15:39:22;11.40;78.80
7174;DHT22;3628;48.654;8.932;2023-04-15T15:41:48;11.60;79.30
7174;DHT22;3628;48.654;8.932;2023-04-15T15:44:14;11.50;79.30
7174;DHT22;3628;48.654;8.932;2023-04-15T15:46:39;11.60;80.20
7174;DHT22;3628;48.654;8.932;2023-04-15T15:49:05;11.60;80.90
7174;DHT22;3628;48.654;8.932;2023-04-15T15:51:30;11.60;80.10
7174;DHT22;3628;48.654;8.932;2023-04-15T15:53:56;11.60;81.00
7174;DHT22;3628;48.654;8.932;2023-04-15T15:56:22;11.60;81.10
7174;DHT22;3628;48.654;8.932;2023-04-15T15:58:47;11.50;80.60
7174;DHT22;3628;48.654;8.932;2023-04-15T16:01:13;11.40;80.40
7174;DHT22;3628;48.654;8.932;2023-04-15T16:03:38;11.40;80.80
7174;DHT22;3628;48.654;8.932;2023-04-15T16:06:04;11.50;81.60
7174;DHT22;3628;48.654;8.932;2023-04-15T16:08:29;11.50;81.60
7174;DHT22;3628;48.654;8.932;2023-04-15T16:10:55;11.60;82.60
7174;DHT22;3628;48.654;8.932;2023-04-15T16:13:21;11.60;84.10